Time;durP1;ratioP1;P1;durP2;ratioP2;P2;SDS_P1;SDS_P2;PMS_P1;PMS_P2;Temp;Humidity;BMP_temperature;BMP_pressure;BME280_temperature;BME280_humidity;BME280_pressure;Samples;Min_cycle;Max_cycle;Signal;HPM_P1;HPM_P2
2023/07/12 00:00:42;;;;;;;2.22;0.90;;;;;;;;;;5031667;28;20464;-81
2023/07/12 00:03:08;;;;;;;2.92;1.10;;;;;;;;;;5032667;28;20021;-81
2023/07/12 00:05:33;;;;;;;4.28;1.35;;;;;;;;;;5048604;28;20029;-82
2023/07/12 00:07:58;;;;;;;2.55;1.10;;;;;;;;;;5039569;28;20084;-82
2023/07/12 00:10:28;;;;;;;3.00;1.20;;;;;;;;;;5051996;28;20022;-81
2023/07/12 00:12:54;;;;;;;3.15;1.20;;;;;;;;;;5052289;28;20548;-82
2023/07/12 00:15:25;;;;;;;3.40;1.30;;;;;;;;;;5050515;28;20071;-81
2023/07/12 00:17:51;;;;;;;2.38;1.13;;;;;;;;;;5030147;28;20025;-82
2023/07/12 00:20:35;;;;;;;3.67;1.25;;;;;;;;;;5031021;28;20032;-82
2023/07/12 00:23:01;;;;;;;3.13;1.30;;;;;;;;;;5032508;28;20513;-82
2023/07/12 00:25:29;;;;;;;3.58;1.33;;;;;;;;;;5031719;28;20032;-82
2023/07/12 00:27:55;;;;;;;3.60;1.30;;;;;;;;;;5044488;28;20036;-82
2023/07/12 00:30:29;;;;;;;3.30;1.40;;;;;;;;;;5028520;28;20013;-82
2023/07/12 00:32:57;;;;;;;3.42;1.20;;;;;;;;;;5048690;28;20055;-82
2023/07/12 00:35:25;;;;;;;4.18;1.30;;;;;;;;;;5035484;28;20477;-81
2023/07/12 00:37:53;;;;;;;4.00;1.20;;;;;;;;;;5026938;28;20116;-81
2023/07/12 00:40:23;;;;;;;4.85;1.30;;;;;;;;;;5046729;28;20021;-82
2023/07/12 00:42:54;;;;;;;5.72;1.13;;;;;;;;;;5031417;28;20122;-81
2023/07/12 00:45:20;;;;;;;2.85;1.23;;;;;;;;;;5050477;28;20112;-81
2023/07/12 00:47:47;;;;;;;3.72;1.10;;;;;;;;;;5033992;28;20116;-81
2023/07/12 00:50:18;;;;;;;4.82;1.25;;;;;;;;;;5044094;28;20017;-82
2023/07/12 00:52:45;;;;;;;6.30;1.50;;;;;;;;;;5053202;28;20068;-82
2023/07/12 00:55:48;;;;;;;3.15;1.20;;;;;;;;;;5031057;28;20075;-81
2023/07/12 00:58:13;;;;;;;4.43;1.40;;;;;;;;;;5048501;28;20029;-82
2023/07/12 01:00:38;;;;;;;3.17;1.25;;;;;;;;;;5034231;28;20397;-82
2023/07/12 01:03:05;;;;;;;3.58;1.40;;;;;;;;;;5035883;28;20024;-82
2023/07/12 01:05:31;;;;;;;5.00;1.10;;;;;;;;;;5053609;28;20025;-82
2023/07/12 01:07:56;;;;;;;4.97;1.30;;;;;;;;;;5051649;28;20025;-82
2023/07/12 01:10:22;;;;;;;3.90;1.40;;;;;;;;;;5050615;28;20021;-83
2023/07/12 01:12:48;;;;;;;3.83;1.48;;;;;;;;;;5037096;28;20378;-82
2023/07/12 01:15:14;;;;;;;4.13;1.60;;;;;;;;;;5035055;28;20021;-82
2023/07/12 01:17:39;;;;;;;4.88;1.70;;;;;;;;;;5050193;28;20039;-82
2023/07/12 01:20:07;;;;;;;3.88;1.42;;;;;;;;;;5025170;28;20063;-82
2023/07/12 01:22:32;;;;;;;6.20;1.67;;;;;;;;;;5034532;28;20017;-82
2023/07/12 01:24:57;;;;;;;5.35;1.50;;;;;;;;;;5046526;28;20032;-81
2023/07/12 01:27:24;;;;;;;4.78;1.40;;;;;;;;;;5048600;28;20056;-81
2023/07/12 01:29:50;;;;;;;6.97;2.65;;;;;;;;;;5032186;28;20025;-80
2023/07/12 01:32:17;;;;;;;6.13;2.30;;;;;;;;;;5047789;28;20017;-80
2023/07/12 01:34:42;;;;;;;7.90;2.28;;;;;;;;;;5034327;28;20714;-80
2023/07/12 01:37:07;;;;;;;2.97;1.40;;;;;;;;;;5050963;28;20045;-80
2023/07/12 01:39:33;;;;;;;7.28;1.73;;;;;;;;;;5041694;28;20103;-79
2023/07/12 01:41:59;;;;;;;5.43;2.38;;;;;;;;;;5035445;28;20043;-80
2023/07/12 01:44:25;;;;;;;3.15;1.38;;;;;;;;;;5055410;28;20024;-80
2023/07/12 01:46:50;;;;;;;5.95;1.45;;;;;;;;;;5050668;28;20473;-79
2023/07/12 01:49:15;;;;;;;5.72;1.50;;;;;;;;;;5047727;28;20053;-80
2023/07/12 01:51:41;;;;;;;4.63;1.20;;;;;;;;;;5026042;28;20030;-79
2023/07/12 01:54:06;;;;;;;4.63;1.40;;;;;;;;;;5046621;28;20115;-80
2023/07/12 01:56:31;;;;;;;4.15;1.45;;;;;;;;;;5035318;28;20053;-80
2023/07/12 01:58:57;;;;;;;3.60;1.48;;;;;;;;;;5032138;28;20033;-80
2023/07/12 02:01:22;;;;;;;3.42;1.23;;;;;;;;;;5031277;28;20485;-80
2023/07/12 02:03:48;;;;;;;5.35;1.10;;;;;;;;;;5047333;28;20056;-80
2023/07/12 02:06:13;;;;;;;5.07;1.60;;;;;;;;;;5045690;28;20029;-79
2023/07/12 02:08:38;;;;;;;4.65;1.20;;;;;;;;;;5026436;28;20539;-80
2023/07/12 02:11:04;;;;;;;6.25;1.45;;;;;;;;;;5050510;28;20045;-80
2023/07/12 02:13:29;;;;;;;4.53;1.50;;;;;;;;;;5037298;28;20986;-80
2023/07/12 02:15:55;;;;;;;4.97;1.77;;;;;;;;;;5032981;28;20450;-80
2023/07/12 02:18:20;;;;;;;4.65;1.33;;;;;;;;;;5034416;28;20043;-80
2023/07/12 02:20:45;;;;;;;5.80;1.40;;;;;;;;;;5046841;28;20385;-80
2023/07/12 02:23:11;;;;;;;4.45;1.20;;;;;;;;;;5032597;28;20085;-80
2023/07/12 02:25:36;;;;;;;5.97;1.35;;;;;;;;;;5038522;28;20033;-80
2023/07/12 02:28:02;;;;;;;3.08;1.08;;;;;;;;;;5052931;28;20067;-80
2023/07/12 02:30:29;;;;;;;2.45;1.20;;;;;;;;;;5050701;28;20483;-80
2023/07/12 02:32:55;;;;;;;4.25;1.33;;;;;;;;;;5041388;28;20032;-80
2023/07/12 02:35:27;;;;;;;5.68;1.20;;;;;;;;;;5035640;28;20032;-80
2023/07/12 02:37:53;;;;;;;3.20;1.10;;;;;;;;;;5058308;28;20020;-80
2023/07/12 02:40:18;;;;;;;2.83;1.30;;;;;;;;;;5060263;28;20397;-80
2023/07/12 02:42:43;;;;;;;6.95;1.45;;;;;;;;;;5037019;28;20412;-80
2023/07/12 02:45:09;;;;;;;3.13;1.20;;;;;;;;;;5038185;28;20033;-79
2023/07/12 02:47:34;;;;;;;4.38;1.40;;;;;;;;;;5056798;28;20440;-79
2023/07/12 02:50:00;;;;;;;4.55;1.30;;;;;;;;;;5033608;28;20021;-79
2023/07/12 02:52:25;;;;;;;5.47;1.77;;;;;;;;;;5050284;28;20041;-80
2023/07/12 02:54:51;;;;;;;4.22;1.30;;;;;;;;;;5032247;28;20083;-79
2023/07/12 02:57:17;;;;;;;3.10;1.20;;;;;;;;;;5026568;28;20123;-80
2023/07/12 02:59:42;;;;;;;3.58;1.35;;;;;;;;;;5050251;28;20389;-79
2023/07/12 03:02:10;;;;;;;5.38;1.67;;;;;;;;;;5030419;28;20056;-80
2023/07/12 03:04:36;;;;;;;4.88;1.50;;;;;;;;;;5039054;28;20028;-79
2023/07/12 03:07:02;;;;;;;5.13;1.65;;;;;;;;;;5030868;28;20116;-80
2023/07/12 03:09:27;;;;;;;3.63;1.70;;;;;;;;;;5048784;28;20099;-80
2023/07/12 03:11:53;;;;;;;3.80;1.50;;;;;;;;;;5036828;28;20483;-79
2023/07/12 03:14:20;;;;;;;5.93;1.85;;;;;;;;;;5037688;28;20442;-80
2023/07/12 03:16:46;;;;;;;4.00;1.50;;;;;;;;;;5049224;28;20031;-80
2023/07/12 03:19:12;;;;;;;4.88;1.77;;;;;;;;;;5050923;28;20025;-80
2023/07/12 03:21:38;;;;;;;5.78;1.63;;;;;;;;;;5053768;28;20028;-80
2023/07/12 03:24:04;;;;;;;4.47;1.70;;;;;;;;;;5034045;28;20078;-79
2023/07/12 03:26:30;;;;;;;4.40;1.88;;;;;;;;;;5030968;28;20420;-79
2023/07/12 03:28:56;;;;;;;5.00;1.77;;;;;;;;;;5032160;28;20043;-80
2023/07/12 03:31:22;;;;;;;6.50;2.22;;;;;;;;;;5017297;28;20120;-79
2023/07/12 03:33:48;;;;;;;4.30;2.20;;;;;;;;;;5050968;28;20024;-80
2023/07/12 03:36:14;;;;;;;4.85;1.85;;;;;;;;;;5014325;28;20446;-79
2023/07/12 03:38:40;;;;;;;7.60;2.10;;;;;;;;;;5046526;28;20033;-80
2023/07/12 03:41:08;;;;;;;5.57;2.63;;;;;;;;;;5046582;28;20033;-80
2023/07/12 03:43:34;;;;;;;4.70;2.50;;;;;;;;;;5032758;28;20366;-80
2023/07/12 03:45:59;;;;;;;5.15;2.30;;;;;;;;;;5036921;28;20040;-79
2023/07/12 03:48:25;;;;;;;4.18;2.30;;;;;;;;;;5054376;28;20477;-80
2023/07/12 03:50:55;;;;;;;4.55;2.35;;;;;;;;;;5004531;28;20033;-79
2023/07/12 03:53:20;;;;;;;5.90;3.05;;;;;;;;;;5054579;28;20039;-80
2023/07/12 03:55:47;;;;;;;5.28;2.53;;;;;;;;;;5035563;28;20024;-80
2023/07/12 03:58:16;;;;;;;6.13;3.08;;;;;;;;;;5053528;28;20028;-80
2023/07/12 04:00:43;;;;;;;7.38;2.85;;;;;;;;;;5046288;28;20389;-78
2023/07/12 04:03:09;;;;;;;5.60;3.35;;;;;;;;;;5040705;28;20055;-80
2023/07/12 04:05:39;;;;;;;5.65;3.67;;;;;;;;;;5052163;28;20025;-80
2023/07/12 04:08:05;;;;;;;7.90;3.53;;;;;;;;;;5052568;28;20405;-80
2023/07/12 04:10:31;;;;;;;6.28;4.15;;;;;;;;;;5037531;28;20021;-80
2023/07/12 04:12:57;;;;;;;6.03;3.72;;;;;;;;;;5046070;28;20029;-80
2023/07/12 04:15:22;;;;;;;6.28;3.28;;;;;;;;;;5047985;28;20066;-80
2023/07/12 04:17:48;;;;;;;6.18;3.95;;;;;;;;;;5039769;28;20025;-80
2023/07/12 04:20:14;;;;;;;6.95;3.97;;;;;;;;;;5053382;28;20081;-79
2023/07/12 04:22:39;;;;;;;7.25;5.10;;;;;;;;;;5052338;28;20540;-80
2023/07/12 04:25:06;;;;;;;7.78;5.03;;;;;;;;;;5048228;28;20400;-80
2023/07/12 04:27:36;;;;;;;7.15;4.55;;;;;;;;;;5051778;28;20025;-79
2023/07/12 04:30:03;;;;;;;7.25;5.00;;;;;;;;;;5026895;28;20053;-79
2023/07/12 04:32:29;;;;;;;7.85;4.50;;;;;;;;;;5034417;28;20025;-79
2023/07/12 04:34:55;;;;;;;7.28;4.45;;;;;;;;;;5045188;28;20029;-80
2023/07/12 04:37:20;;;;;;;6.57;4.32;;;;;;;;;;5034577;28;20028;-80
2023/07/12 04:39:46;;;;;;;5.82;3.90;;;;;;;;;;5047019;28;20083;-81
2023/07/12 04:42:11;;;;;;;6.72;4.18;;;;;;;;;;5026524;28;20032;-80
2023/07/12 04:44:36;;;;;;;6.10;4.00;;;;;;;;;;5031819;28;20462;-79
2023/07/12 04:47:02;;;;;;;6.00;3.85;;;;;;;;;;5026948;28;20037;-80
2023/07/12 04:49:27;;;;;;;7.78;4.13;;;;;;;;;;5039144;28;20027;-79
2023/07/12 04:51:53;;;;;;;9.02;4.28;;;;;;;;;;5030376;28;20028;-79
2023/07/12 04:54:18;;;;;;;7.47;3.65;;;;;;;;;;5025882;28;20025;-80
2023/07/12 04:56:43;;;;;;;7.35;3.53;;;;;;;;;;5051300;28;20033;-79
2023/07/12 04:59:09;;;;;;;5.90;3.20;;;;;;;;;;5058188;28;20036;-80
2023/07/12 05:01:34;;;;;;;6.90;3.45;;;;;;;;;;5032821;28;20124;-80
2023/07/12 05:04:00;;;;;;;7.60;3.30;;;;;;;;;;5047914;28;20107;-80
2023/07/12 05:06:25;;;;;;;4.65;2.85;;;;;;;;;;5031895;28;20033;-80
2023/07/12 05:08:51;;;;;;;4.82;2.60;;;;;;;;;;5031769;28;20473;-79
2023/07/12 05:11:17;;;;;;;7.20;2.70;;;;;;;;;;5054721;28;20074;-78
2023/07/12 05:13:43;;;;;;;5.00;2.40;;;;;;;;;;5038711;28;20024;-80
2023/07/12 05:16:11;;;;;;;4.63;2.40;;;;;;;;;;5041429;28;20474;-80
2023/07/12 05:18:36;;;;;;;6.88;2.95;;;;;;;;;;5036745;28;20029;-79
2023/07/12 05:21:02;;;;;;;4.32;2.22;;;;;;;;;;5052070;28;20098;-79
2023/07/12 05:23:27;;;;;;;6.63;2.47;;;;;;;;;;5047590;28;20036;-80
2023/07/12 05:25:54;;;;;;;6.80;3.10;;;;;;;;;;5034419;28;20404;-80
2023/07/12 05:28:20;;;;;;;5.55;2.25;;;;;;;;;;5053428;28;20416;-80
2023/07/12 05:30:46;;;;;;;5.47;2.38;;;;;;;;;;5040766;28;20086;-80
2023/07/12 05:33:12;;;;;;;5.55;2.33;;;;;;;;;;5038175;28;20037;-80
2023/07/12 05:35:38;;;;;;;6.05;2.40;;;;;;;;;;5053727;28;20031;-80
2023/07/12 05:38:03;;;;;;;5.28;2.50;;;;;;;;;;5051040;28;20063;-80
2023/07/12 05:40:32;;;;;;;7.15;2.88;;;;;;;;;;5067536;28;20020;-80
2023/07/12 05:42:58;;;;;;;8.43;2.45;;;;;;;;;;5036208;28;20104;-80
2023/07/12 05:45:25;;;;;;;6.28;2.70;;;;;;;;;;5054888;28;20033;-80
2023/07/12 05:47:50;;;;;;;5.20;1.98;;;;;;;;;;5055787;28;20075;-80
2023/07/12 05:50:18;;;;;;;4.15;2.38;;;;;;;;;;5045271;28;20017;-80
2023/07/12 05:52:44;;;;;;;4.57;2.50;;;;;;;;;;5054345;28;20032;-80
2023/07/12 05:55:11;;;;;;;6.03;2.30;;;;;;;;;;5042450;28;20029;-81
2023/07/12 05:57:36;;;;;;;7.88;2.80;;;;;;;;;;5039039;28;20025;-81
2023/07/12 06:00:03;;;;;;;6.10;2.40;;;;;;;;;;5053174;28;20512;-81
2023/07/12 06:02:29;;;;;;;6.20;2.45;;;;;;;;;;5044428;28;20435;-81
2023/07/12 06:04:54;;;;;;;8.32;2.70;;;;;;;;;;5055920;28;20115;-81
2023/07/12 06:07:20;;;;;;;8.48;2.90;;;;;;;;;;5037035;28;20115;-81
2023/07/12 06:09:45;;;;;;;8.57;3.42;;;;;;;;;;5050589;28;20183;-80
2023/07/12 06:12:11;;;;;;;5.15;2.90;;;;;;;;;;5028065;28;20136;-81
2023/07/12 06:14:37;;;;;;;9.75;3.42;;;;;;;;;;5036431;28;20028;-81
2023/07/12 06:17:03;;;;;;;6.53;2.83;;;;;;;;;;5049334;28;20020;-80
2023/07/12 06:19:29;;;;;;;7.30;3.33;;;;;;;;;;5035539;28;20025;-81
2023/07/12 06:21:54;;;;;;;6.45;3.72;;;;;;;;;;5060949;28;20028;-81
2023/07/12 06:24:20;;;;;;;7.25;3.55;;;;;;;;;;5064283;28;20040;-80
2023/07/12 06:26:45;;;;;;;6.57;3.78;;;;;;;;;;5062839;28;20020;-81
2023/07/12 06:29:10;;;;;;;8.35;4.13;;;;;;;;;;5061449;28;20028;-81
2023/07/12 06:31:36;;;;;;;7.10;4.10;;;;;;;;;;5061103;28;20104;-82
2023/07/12 06:34:04;;;;;;;8.55;4.05;;;;;;;;;;5049021;28;20036;-81
2023/07/12 06:36:33;;;;;;;8.40;4.35;;;;;;;;;;5051630;28;20029;-79
2023/07/12 06:38:58;;;;;;;8.18;4.00;;;;;;;;;;5056255;28;20433;-81
2023/07/12 06:41:24;;;;;;;9.38;5.00;;;;;;;;;;5037813;28;20017;-81
2023/07/12 06:43:49;;;;;;;9.30;4.28;;;;;;;;;;5033105;28;20044;-79
2023/07/12 06:46:15;;;;;;;7.20;4.15;;;;;;;;;;5051191;28;20024;-80
2023/07/12 06:48:40;;;;;;;8.13;4.28;;;;;;;;;;5032871;28;20029;-80
2023/07/12 06:51:06;;;;;;;8.00;4.30;;;;;;;;;;5050620;28;20074;-79
2023/07/12 06:53:31;;;;;;;9.55;4.95;;;;;;;;;;5048678;28;20078;-80
2023/07/12 06:55:57;;;;;;;7.45;3.88;;;;;;;;;;5049114;28;20052;-80
2023/07/12 06:58:22;;;;;;;7.03;3.75;;;;;;;;;;5054180;28;20020;-80
2023/07/12 07:00:48;;;;;;;8.38;3.35;;;;;;;;;;5029707;28;20032;-80
2023/07/12 07:03:15;;;;;;;7.07;3.25;;;;;;;;;;5042086;28;20081;-80
2023/07/12 07:05:44;;;;;;;9.45;3.65;;;;;;;;;;5035972;28;20538;-80
2023/07/12 07:08:11;;;;;;;9.07;3.35;;;;;;;;;;5035685;28;20029;-80
2023/07/12 07:10:36;;;;;;;7.30;3.42;;;;;;;;;;5058742;28;20130;-80
2023/07/12 07:13:02;;;;;;;5.95;3.38;;;;;;;;;;5046121;28;20040;-80
2023/07/12 07:15:28;;;;;;;8.68;3.85;;;;;;;;;;5049936;28;20016;-78
2023/07/12 07:17:53;;;;;;;8.10;3.53;;;;;;;;;;5018318;28;20035;-80
2023/07/12 07:20:19;;;;;;;9.40;3.80;;;;;;;;;;5049578;28;20025;-79
2023/07/12 07:22:44;;;;;;;11.10;4.10;;;;;;;;;;5040732;28;20032;-79
2023/07/12 07:25:09;;;;;;;8.43;3.95;;;;;;;;;;5058500;28;20028;-80
2023/07/12 07:27:35;;;;;;;6.95;3.58;;;;;;;;;;5037863;28;20021;-80
2023/07/12 07:30:00;;;;;;;8.02;3.63;;;;;;;;;;5043247;28;20029;-80
2023/07/12 07:32:26;;;;;;;8.30;3.58;;;;;;;;;;5036749;28;20029;-80
2023/07/12 07:34:51;;;;;;;6.85;3.45;;;;;;;;;;5037820;28;20389;-79
2023/07/12 07:37:16;;;;;;;8.10;4.00;;;;;;;;;;5036360;28;20034;-81
2023/07/12 07:39:42;;;;;;;6.60;3.70;;;;;;;;;;5059473;28;20068;-81
2023/07/12 07:42:07;;;;;;;7.38;3.90;;;;;;;;;;5052163;28;20115;-80
2023/07/12 07:44:34;;;;;;;7.35;3.70;;;;;;;;;;5051130;28;20024;-82
2023/07/12 07:46:59;;;;;;;6.72;4.00;;;;;;;;;;5043672;28;20028;-81
2023/07/12 07:49:26;;;;;;;8.23;4.00;;;;;;;;;;5038464;28;20362;-82
2023/07/12 07:51:51;;;;;;;6.25;3.38;;;;;;;;;;5039320;28;20021;-81
2023/07/12 07:54:17;;;;;;;8.45;4.00;;;;;;;;;;5054373;28;20024;-81
2023/07/12 07:56:43;;;;;;;7.25;3.67;;;;;;;;;;5042929;28;20115;-81
2023/07/12 07:59:08;;;;;;;10.57;4.00;;;;;;;;;;5029546;28;20025;-82
2023/07/12 08:01:34;;;;;;;8.27;3.85;;;;;;;;;;5050625;28;20031;-81
2023/07/12 08:03:59;;;;;;;9.55;3.85;;;;;;;;;;5047804;28;20034;-81
2023/07/12 08:06:25;;;;;;;7.70;3.40;;;;;;;;;;5054854;28;20028;-81
2023/07/12 08:08:52;;;;;;;9.65;4.05;;;;;;;;;;5045922;28;20107;-81
2023/07/12 08:11:17;;;;;;;7.15;4.20;;;;;;;;;;5040438;28;20048;-81
2023/07/12 08:13:43;;;;;;;8.52;3.97;;;;;;;;;;5031813;28;20024;-80
2023/07/12 08:16:08;;;;;;;9.80;4.22;;;;;;;;;;5055818;28;20029;-81
2023/07/12 08:18:34;;;;;;;7.85;4.00;;;;;;;;;;5035768;28;20028;-81
2023/07/12 08:21:00;;;;;;;9.13;4.20;;;;;;;;;;5041437;28;20090;-81
2023/07/12 08:23:25;;;;;;;8.20;3.92;;;;;;;;;;5048708;28;20100;-83
2023/07/12 08:25:52;;;;;;;8.55;4.03;;;;;;;;;;5052812;28;20025;-82
2023/07/12 08:28:18;;;;;;;9.30;3.80;;;;;;;;;;5057603;28;20027;-82
2023/07/12 08:30:43;;;;;;;9.80;3.83;;;;;;;;;;5053732;28;20384;-81
2023/07/12 08:33:10;;;;;;;8.65;4.20;;;;;;;;;;5053400;28;20039;-81
2023/07/12 08:35:36;;;;;;;11.93;4.05;;;;;;;;;;5041910;28;20021;-81
2023/07/12 08:38:02;;;;;;;8.90;3.72;;;;;;;;;;5052628;28;20087;-82
2023/07/12 08:40:27;;;;;;;9.70;4.65;;;;;;;;;;5033061;28;20041;-82
2023/07/12 08:42:53;;;;;;;9.57;4.25;;;;;;;;;;5049972;28;20396;-81
2023/07/12 08:45:23;;;;;;;6.55;4.10;;;;;;;;;;5055822;28;20059;-81
2023/07/12 08:47:51;;;;;;;9.95;4.43;;;;;;;;;;5037198;28;20476;-81
2023/07/12 08:50:17;;;;;;;9.77;4.07;;;;;;;;;;5041044;28;20138;-82
2023/07/12 08:52:47;;;;;;;9.15;4.10;;;;;;;;;;5063332;28;20561;-81
2023/07/12 08:55:15;;;;;;;8.70;3.95;;;;;;;;;;5041398;28;20017;-82
2023/07/12 08:57:41;;;;;;;6.70;3.63;;;;;;;;;;5033815;28;20028;-81
2023/07/12 09:00:27;;;;;;;7.82;3.85;;;;;;;;;;5056935;28;20036;-82
2023/07/12 09:02:52;;;;;;;8.60;4.15;;;;;;;;;;5059862;28;20426;-81
2023/07/12 09:05:21;;;;;;;7.28;3.50;;;;;;;;;;5063986;28;20068;-82
2023/07/12 09:08:04;;;;;;;8.57;3.85;;;;;;;;;;5044101;28;20078;-82
2023/07/12 09:10:34;;;;;;;10.77;4.10;;;;;;;;;;5043530;28;20021;-82
2023/07/12 09:13:01;;;;;;;8.18;3.80;;;;;;;;;;5067679;28;20012;-83
2023/07/12 09:15:33;;;;;;;10.10;3.80;;;;;;;;;;5069648;28;20032;-82
2023/07/12 09:17:58;;;;;;;8.77;3.80;;;;;;;;;;5047345;28;20052;-81
2023/07/12 09:20:32;;;;;;;9.88;3.95;;;;;;;;;;5036480;28;20033;-82
2023/07/12 09:22:58;;;;;;;7.85;3.88;;;;;;;;;;5057843;28;20021;-81
2023/07/12 09:25:26;;;;;;;8.02;3.78;;;;;;;;;;5055174;28;20075;-82
2023/07/12 09:27:52;;;;;;;6.47;3.60;;;;;;;;;;5059871;28;20029;-81
2023/07/12 09:30:25;;;;;;;8.15;3.13;;;;;;;;;;5068684;28;20055;-80
2023/07/12 09:32:53;;;;;;;10.70;2.92;;;;;;;;;;5072480;28;20034;-82
2023/07/12 09:35:31;;;;;;;8.43;3.85;;;;;;;;;;5077117;28;20481;-81
2023/07/12 09:38:03;;;;;;;6.75;3.55;;;;;;;;;;5051135;28;20022;-81
2023/07/12 09:40:40;;;;;;;7.03;3.57;;;;;;;;;;5061350;28;20033;-82
2023/07/12 09:43:16;;;;;;;8.73;4.00;;;;;;;;;;5053065;28;20092;-82
2023/07/12 09:45:49;;;;;;;7.40;3.47;;;;;;;;;;5062621;28;20004;-81
2023/07/12 09:48:26;;;;;;;7.40;3.40;;;;;;;;;;5073648;28;20021;-81
2023/07/12 09:51:23;;;;;;;7.38;3.13;;;;;;;;;;5076030;28;20032;-82
2023/07/12 09:53:52;;;;;;;7.78;4.03;;;;;;;;;;5068949;28;20409;-82
2023/07/12 09:56:33;;;;;;;6.75;3.60;;;;;;;;;;5064106;28;20048;-82
2023/07/12 09:59:07;;;;;;;7.97;4.40;;;;;;;;;;5056021;28;20020;-82
2023/07/12 10:01:44;;;;;;;7.97;4.40;;;;;;;;;;5064424;28;20013;-83
2023/07/12 10:04:44;;;;;;;9.32;4.00;;;;;;;;;;5071444;28;20957;-83
2023/07/12 10:07:45;;;;;;;7.30;4.00;;;;;;;;;;5062930;28;20024;-82
2023/07/12 10:10:21;;;;;;;8.18;3.90;;;;;;;;;;5075234;28;20029;-83
2023/07/12 10:12:54;;;;;;;7.05;3.70;;;;;;;;;;5074141;28;20056;-83
2023/07/12 10:15:19;;;;;;;9.10;3.70;;;;;;;;;;5072727;28;20025;-82
2023/07/12 10:17:45;;;;;;;5.60;3.95;;;;;;;;;;5078677;28;20035;-81
2023/07/12 10:20:21;;;;;;;8.88;3.75;;;;;;;;;;5052973;28;20021;-83
2023/07/12 10:22:47;;;;;;;6.25;3.08;;;;;;;;;;5082726;28;20024;-83
2023/07/12 10:25:27;;;;;;;8.60;3.30;;;;;;;;;;5075841;28;20021;-82
2023/07/12 10:28:27;;;;;;;6.88;3.40;;;;;;;;;;5044154;28;20039;-80
2023/07/12 10:30:56;;;;;;;9.25;3.63;;;;;;;;;;5051070;28;20024;-81
2023/07/12 10:33:27;;;;;;;7.38;3.17;;;;;;;;;;5064974;28;20036;-80
2023/07/12 10:36:00;;;;;;;5.60;3.00;;;;;;;;;;5057364;28;21863;-80
2023/07/12 10:38:25;;;;;;;5.70;2.95;;;;;;;;;;5039083;28;20037;-81
2023/07/12 10:41:21;;;;;;;7.03;3.38;;;;;;;;;;5051129;28;20414;-81
2023/07/12 10:43:51;;;;;;;7.10;3.03;;;;;;;;;;5034589;28;20081;-81
2023/07/12 10:46:30;;;;;;;5.93;2.92;;;;;;;;;;5048277;28;20045;-81
2023/07/12 10:48:56;;;;;;;5.65;3.38;;;;;;;;;;5053630;28;20021;-80
2023/07/12 10:51:33;;;;;;;7.90;3.92;;;;;;;;;;5050252;28;20029;-81
2023/07/12 10:53:59;;;;;;;8.10;3.55;;;;;;;;;;5053186;28;20098;-80
2023/07/12 10:56:38;;;;;;;7.68;3.90;;;;;;;;;;5052152;28;20512;-81
2023/07/12 10:59:27;;;;;;;7.15;4.25;;;;;;;;;;5054100;28;20086;-81
2023/07/12 11:01:54;;;;;;;7.43;4.28;;;;;;;;;;5055747;28;20119;-81
2023/07/12 11:04:47;;;;;;;6.05;4.20;;;;;;;;;;5032871;28;20058;-81
2023/07/12 11:07:15;;;;;;;9.60;3.17;;;;;;;;;;5038255;28;20041;-81
2023/07/12 11:10:03;;;;;;;7.82;3.40;;;;;;;;;;5053406;28;20484;-81
2023/07/12 11:12:31;;;;;;;6.03;2.50;;;;;;;;;;5037231;28;20036;-81
2023/07/12 11:15:11;;;;;;;4.60;2.20;;;;;;;;;;5043169;28;20500;-81
2023/07/12 11:18:00;;;;;;;5.85;2.35;;;;;;;;;;5054105;28;20031;-81
2023/07/12 11:20:30;;;;;;;8.15;2.70;;;;;;;;;;5038627;28;20025;-81
2023/07/12 11:23:20;;;;;;;5.45;2.72;;;;;;;;;;5032969;28;20035;-81
2023/07/12 11:25:48;;;;;;;6.57;3.17;;;;;;;;;;5044396;28;20445;-81
2023/07/12 11:28:20;;;;;;;6.70;3.30;;;;;;;;;;5038530;28;20431;-81
2023/07/12 11:30:46;;;;;;;7.65;2.95;;;;;;;;;;5027398;28;20025;-81
2023/07/12 11:33:20;;;;;;;9.20;3.33;;;;;;;;;;5034943;28;20054;-81
2023/07/12 11:35:51;;;;;;;8.43;3.10;;;;;;;;;;5052779;28;20027;-81
2023/07/12 11:38:23;;;;;;;5.32;2.55;;;;;;;;;;5052514;28;20029;-81
2023/07/12 11:40:53;;;;;;;4.30;2.05;;;;;;;;;;5054100;28;20062;-82
2023/07/12 11:43:25;;;;;;;6.88;2.30;;;;;;;;;;5050417;28;20454;-82
2023/07/12 11:45:55;;;;;;;5.90;2.45;;;;;;;;;;5051956;28;20397;-81
2023/07/12 11:48:23;;;;;;;6.28;2.58;;;;;;;;;;5055888;28;20107;-81
2023/07/12 11:50:50;;;;;;;4.85;2.78;;;;;;;;;;5047011;28;20020;-81
2023/07/12 11:53:16;;;;;;;5.90;3.40;;;;;;;;;;5051161;28;20484;-81
2023/07/12 11:55:42;;;;;;;6.05;3.70;;;;;;;;;;5036127;28;20500;-82
2023/07/12 11:58:20;;;;;;;7.43;4.00;;;;;;;;;;5051909;28;20037;-81
2023/07/12 12:00:47;;;;;;;7.60;4.40;;;;;;;;;;5054787;28;20040;-81
2023/07/12 12:03:14;;;;;;;7.28;4.20;;;;;;;;;;5048198;28;20094;-82
2023/07/12 12:05:40;;;;;;;9.70;5.10;;;;;;;;;;5033503;28;20028;-82
2023/07/12 12:08:10;;;;;;;9.50;4.45;;;;;;;;;;5050113;28;20555;-81
2023/07/12 12:10:38;;;;;;;6.70;4.07;;;;;;;;;;5035015;28;20021;-81
2023/07/12 12:13:18;;;;;;;5.85;3.30;;;;;;;;;;5047436;28;20021;-81
2023/07/12 12:15:47;;;;;;;9.52;4.13;;;;;;;;;;5053453;28;20112;-80
2023/07/12 12:18:17;;;;;;;7.85;4.05;;;;;;;;;;5033005;28;20075;-81
2023/07/12 12:20:53;;;;;;;8.55;3.60;;;;;;;;;;5047939;28;20025;-82
2023/07/12 12:23:26;;;;;;;5.50;2.92;;;;;;;;;;5032553;28;20036;-81
2023/07/12 12:25:52;;;;;;;5.78;2.50;;;;;;;;;;5042561;28;20052;-81
2023/07/12 12:28:26;;;;;;;10.20;2.95;;;;;;;;;;5039385;28;20035;-86
2023/07/12 12:31:22;;;;;;;6.93;2.42;;;;;;;;;;5037398;28;20048;-85
2023/07/12 12:34:01;;;;;;;6.00;2.40;;;;;;;;;;5013404;28;20043;-85
2023/07/12 12:36:29;;;;;;;5.18;2.42;;;;;;;;;;5037385;28;20070;-86
2023/07/12 12:39:17;;;;;;;6.60;2.17;;;;;;;;;;5035902;28;20469;-86
2023/07/12 12:41:53;;;;;;;5.40;1.92;;;;;;;;;;5016330;28;20371;-84
2023/07/12 12:44:20;;;;;;;5.70;2.08;;;;;;;;;;5052428;28;20060;-86
2023/07/12 12:46:51;;;;;;;6.05;2.25;;;;;;;;;;5040187;28;20039;-85
2023/07/12 12:49:37;;;;;;;5.63;2.42;;;;;;;;;;5057479;28;20021;-86
2023/07/12 12:52:23;;;;;;;4.88;1.90;;;;;;;;;;5032171;28;20449;-85
2023/07/12 12:54:48;;;;;;;5.50;1.88;;;;;;;;;;5033123;28;20021;-84
2023/07/12 12:57:14;;;;;;;9.60;2.20;;;;;;;;;;5048048;28;20035;-82
2023/07/12 12:59:39;;;;;;;4.03;2.10;;;;;;;;;;5041033;28;20106;-81
2023/07/12 13:02:19;;;;;;;4.50;1.85;;;;;;;;;;5051568;28;20127;-83
2023/07/12 13:04:46;;;;;;;5.32;2.03;;;;;;;;;;5048471;28;20024;-83
2023/07/12 13:07:17;;;;;;;4.30;1.50;;;;;;;;;;5058256;28;20035;-82
2023/07/12 13:09:42;;;;;;;3.60;1.50;;;;;;;;;;5043133;28;20435;-81
2023/07/12 13:12:23;;;;;;;5.35;1.70;;;;;;;;;;5052615;28;20039;-82
2023/07/12 13:14:48;;;;;;;4.68;1.38;;;;;;;;;;5050055;28;20036;-81
2023/07/12 13:17:19;;;;;;;3.88;1.30;;;;;;;;;;5050231;28;20021;-82
2023/07/12 13:19:47;;;;;;;4.88;1.50;;;;;;;;;;5058673;28;20498;-82
2023/07/12 13:22:14;;;;;;;3.15;1.40;;;;;;;;;;5050593;28;20116;-82
2023/07/12 13:24:40;;;;;;;2.72;1.27;;;;;;;;;;5028365;28;20044;-81
2023/07/12 13:27:34;;;;;;;5.45;1.92;;;;;;;;;;5051159;28;20112;-83
2023/07/12 13:30:01;;;;;;;4.18;1.50;;;;;;;;;;5034122;28;20036;-81
2023/07/12 13:32:27;;;;;;;3.08;1.30;;;;;;;;;;5047457;28;20043;-81
2023/07/12 13:34:53;;;;;;;3.75;1.40;;;;;;;;;;5033009;28;20029;-82
2023/07/12 13:37:22;;;;;;;3.13;1.30;;;;;;;;;;5055900;28;20078;-82
2023/07/12 13:39:47;;;;;;;4.47;1.60;;;;;;;;;;5036341;28;20112;-82
2023/07/12 13:42:13;;;;;;;2.90;1.52;;;;;;;;;;5048876;28;20120;-82
2023/07/12 13:44:39;;;;;;;4.18;1.60;;;;;;;;;;5034876;28;20069;-82
2023/07/12 13:47:17;;;;;;;3.85;1.50;;;;;;;;;;5033102;28;20039;-82
2023/07/12 13:49:44;;;;;;;3.72;1.48;;;;;;;;;;5053479;28;20025;-81
2023/07/12 13:52:12;;;;;;;2.67;1.60;;;;;;;;;;5056201;28;20032;-82
2023/07/12 13:54:38;;;;;;;3.85;1.50;;;;;;;;;;5030083;28;20500;-81
2023/07/12 13:57:05;;;;;;;3.47;1.60;;;;;;;;;;5031083;28;20025;-82
2023/07/12 13:59:31;;;;;;;4.53;1.92;;;;;;;;;;5053620;28;20068;-82
2023/07/12 14:01:56;;;;;;;4.20;1.50;;;;;;;;;;5054565;28;20060;-82
2023/07/12 14:04:22;;;;;;;2.95;1.35;;;;;;;;;;5042117;28;20029;-81
2023/07/12 14:06:48;;;;;;;3.25;1.48;;;;;;;;;;5034346;28;20469;-82
2023/07/12 14:09:14;;;;;;;2.67;1.50;;;;;;;;;;5059371;28;20113;-82
2023/07/12 14:11:39;;;;;;;4.45;1.65;;;;;;;;;;5038447;28;20126;-82
2023/07/12 14:14:04;;;;;;;6.55;1.67;;;;;;;;;;5040441;28;20078;-83
2023/07/12 14:16:33;;;;;;;3.20;1.30;;;;;;;;;;5036347;28;20108;-82
2023/07/12 14:18:58;;;;;;;3.33;1.40;;;;;;;;;;5034866;28;20036;-81
2023/07/12 14:21:23;;;;;;;2.45;1.33;;;;;;;;;;5037845;28;20420;-82
2023/07/12 14:23:50;;;;;;;4.25;1.60;;;;;;;;;;5054939;28;20029;-83
2023/07/12 14:26:24;;;;;;;5.00;1.25;;;;;;;;;;5033000;28;20020;-82
2023/07/12 14:28:50;;;;;;;5.30;1.20;;;;;;;;;;5031752;28;20025;-83
2023/07/12 14:31:18;;;;;;;5.60;1.30;;;;;;;;;;5036252;28;20028;-82
2023/07/12 14:33:44;;;;;;;2.47;1.10;;;;;;;;;;5036651;28;20020;-83
2023/07/12 14:36:18;;;;;;;3.72;1.20;;;;;;;;;;5061706;28;20028;-82
2023/07/12 14:38:45;;;;;;;2.72;1.27;;;;;;;;;;5035671;28;20025;-82
2023/07/12 14:41:22;;;;;;;3.47;1.50;;;;;;;;;;5036611;28;20040;-82
2023/07/12 14:43:48;;;;;;;3.88;1.65;;;;;;;;;;5048063;28;20032;-83
2023/07/12 14:46:17;;;;;;;3.78;1.48;;;;;;;;;;5042329;28;20028;-83
2023/07/12 14:48:43;;;;;;;6.00;1.40;;;;;;;;;;5053033;28;20025;-83
2023/07/12 14:51:25;;;;;;;2.53;1.10;;;;;;;;;;5047120;28;20122;-83